createdAt,value
2019-03-10T00:00:19.841Z,6.70
2019-03-10T00:02:48.341Z,6.70
2019-03-10T00:05:16.781Z,6.40
2019-03-10T00:07:45.209Z,6.00
2019-03-10T00:10:13.721Z,5.70
2019-03-10T00:12:42.128Z,5.60
2019-03-10T00:15:12.244Z,5.50
2019-03-10T00:17:40.684Z,5.50
2019-03-10T00:20:10.764Z,5.60
2019-03-10T00:22:39.448Z,5.60
2019-03-10T00:25:11.413Z,5.60
2019-03-10T00:27:39.856Z,5.70
2019-03-10T00:30:11.672Z,5.70
2019-03-10T00:32:40.139Z,5.70
2019-03-10T00:35:09.030Z,5.70
2019-03-10T00:37:37.474Z,5.70
2019-03-10T00:40:20.917Z,5.70
2019-03-10T00:43:08.988Z,5.70
2019-03-10T00:46:16.461Z,5.70
2019-03-10T00:49:22.732Z,5.70
2019-03-10T00:52:03.127Z,5.60
2019-03-10T00:54:31.573Z,5.70
2019-03-10T00:57:00.170Z,5.70
2019-03-10T00:59:28.609Z,5.60
2019-03-10T01:01:57.040Z,5.60
2019-03-10T01:04:25.688Z,5.70
2019-03-10T01:06:54.381Z,5.60
2019-03-10T01:09:22.808Z,5.60
2019-03-10T01:11:51.405Z,5.60
2019-03-10T01:14:19.901Z,5.60
2019-03-10T01:16:48.709Z,5.70
2019-03-10T01:19:18.565Z,5.60
2019-03-10T01:21:48.525Z,5.60
2019-03-10T01:24:16.957Z,5.60
2019-03-10T01:26:45.404Z,5.70
2019-03-10T01:29:13.965Z,5.60
2019-03-10T01:31:57.670Z,5.70
2019-03-10T01:34:47.373Z,5.70
2019-03-10T01:37:16.011Z,5.70
2019-03-10T01:39:44.567Z,5.60
2019-03-10T01:42:13.071Z,5.70
2019-03-10T01:44:41.544Z,5.70
2019-03-10T01:47:09.981Z,5.80
2019-03-10T01:49:38.411Z,5.80
2019-03-10T01:52:06.848Z,5.80
2019-03-10T01:54:35.298Z,5.70
2019-03-10T01:57:03.771Z,5.70
2019-03-10T01:59:32.279Z,5.60
2019-03-10T02:02:00.719Z,5.60
2019-03-10T02:04:29.352Z,5.60
2019-03-10T02:06:57.888Z,5.60
2019-03-10T02:09:26.320Z,5.60
2019-03-10T02:11:54.757Z,5.60
2019-03-10T02:14:23.181Z,5.60
2019-03-10T02:16:51.647Z,5.60
2019-03-10T02:19:20.064Z,5.60
2019-03-10T02:21:48.560Z,5.60
2019-03-10T02:24:23.717Z,5.60
2019-03-10T02:26:50.152Z,5.50
2019-03-10T02:29:18.597Z,5.50
2019-03-10T02:31:47.016Z,5.40
2019-03-10T02:34:15.450Z,5.50
2019-03-10T02:36:43.877Z,5.50
2019-03-10T02:39:12.312Z,5.40
2019-03-10T02:41:40.850Z,5.50
2019-03-10T02:44:09.296Z,5.40
2019-03-10T02:46:37.722Z,5.50
2019-03-10T02:49:06.161Z,5.40
2019-03-10T02:51:34.582Z,5.40
2019-03-10T02:54:03.015Z,5.40
2019-03-10T02:56:31.436Z,5.40
2019-03-10T02:58:59.881Z,5.40
2019-03-10T03:01:28.369Z,5.40
2019-03-10T03:03:56.805Z,5.40
2019-03-10T03:06:25.301Z,5.40
2019-03-10T03:08:53.734Z,5.40
2019-03-10T03:11:22.182Z,5.30
2019-03-10T03:13:50.675Z,5.30
2019-03-10T03:16:19.103Z,5.40
2019-03-10T03:18:47.784Z,5.30
2019-03-10T03:21:16.210Z,5.30
2019-03-10T03:23:44.674Z,5.30
2019-03-10T03:26:13.099Z,5.30
2019-03-10T03:28:41.609Z,5.30
2019-03-10T03:31:10.072Z,5.20
2019-03-10T03:33:38.574Z,5.20
2019-03-10T03:36:13.015Z,5.20
2019-03-10T03:38:46.526Z,5.20
2019-03-10T03:41:25.325Z,5.10
2019-03-10T03:43:53.761Z,5.10
2019-03-10T03:46:22.265Z,5.10
2019-03-10T03:48:50.758Z,5.10
2019-03-10T03:51:19.181Z,5.10
2019-03-10T03:53:47.613Z,5.10
2019-03-10T03:56:16.105Z,5.10
2019-03-10T03:58:44.581Z,5.10
2019-03-10T04:01:14.652Z,5.10
2019-03-10T04:03:43.462Z,5.20
2019-03-10T04:06:11.998Z,5.10
2019-03-10T04:08:40.415Z,5.10
2019-03-10T04:11:08.874Z,5.20
2019-03-10T04:13:37.321Z,5.20
2019-03-10T04:16:05.756Z,5.20
2019-03-10T04:18:34.190Z,5.30
2019-03-10T04:21:02.695Z,5.20
2019-03-10T04:23:31.143Z,5.30
2019-03-10T04:25:59.642Z,5.20
2019-03-10T04:28:28.053Z,5.20
2019-03-10T04:30:56.500Z,5.20
2019-03-10T04:33:26.344Z,5.20
2019-03-10T04:35:54.799Z,5.20
2019-03-10T04:38:23.281Z,5.20
2019-03-10T04:40:52.074Z,5.20
2019-03-10T04:43:20.492Z,5.30
2019-03-10T04:45:48.921Z,5.20
2019-03-10T04:48:17.358Z,5.30
2019-03-10T04:50:45.854Z,5.20
2019-03-10T04:53:14.281Z,5.10
2019-03-10T04:55:47.069Z,5.10
2019-03-10T04:58:17.132Z,5.10
2019-03-10T05:00:47.209Z,5.10
2019-03-10T05:03:15.632Z,5.20
2019-03-10T05:05:46.470Z,5.20
2019-03-10T05:08:14.885Z,5.10
2019-03-10T05:10:43.324Z,5.20
2019-03-10T05:13:11.757Z,5.20
2019-03-10T05:15:40.338Z,5.20
2019-03-10T05:18:08.761Z,5.20
2019-03-10T05:20:37.207Z,5.20
2019-03-10T05:23:29.328Z,5.20
2019-03-10T05:25:58.931Z,5.20
2019-03-10T05:28:29.194Z,5.20
2019-03-10T05:30:57.639Z,5.20
2019-03-10T05:33:26.168Z,5.20
2019-03-10T05:35:54.638Z,5.20
2019-03-10T05:38:23.153Z,5.30
2019-03-10T05:40:51.589Z,5.20
2019-03-10T05:43:20.054Z,5.30
2019-03-10T05:45:48.477Z,5.30
2019-03-10T05:48:16.906Z,5.20
2019-03-10T05:50:45.417Z,5.20
2019-03-10T05:53:13.849Z,5.20
2019-03-10T05:55:42.289Z,5.20
2019-03-10T05:58:10.711Z,5.10
2019-03-10T06:00:43.057Z,5.10
2019-03-10T06:03:09.304Z,5.10
2019-03-10T06:05:37.754Z,5.10
2019-03-10T06:08:06.281Z,5.20
2019-03-10T06:10:34.767Z,5.20
2019-03-10T06:13:03.196Z,5.20
2019-03-10T06:15:31.630Z,5.20
2019-03-10T06:18:00.054Z,5.20
2019-03-10T06:20:28.482Z,5.20
2019-03-10T06:22:56.900Z,5.30
2019-03-10T06:25:25.338Z,5.30
2019-03-10T06:27:53.761Z,5.30
2019-03-10T06:30:22.197Z,5.40
2019-03-10T06:32:50.642Z,5.40
2019-03-10T06:35:19.085Z,5.30
2019-03-10T06:37:47.516Z,5.30
2019-03-10T06:40:15.956Z,5.40
2019-03-10T06:42:44.400Z,5.40
2019-03-10T06:45:12.818Z,5.50
2019-03-10T06:47:41.252Z,5.40
2019-03-10T06:50:12.426Z,5.40
2019-03-10T06:52:41.363Z,5.50
2019-03-10T06:55:09.856Z,5.40
2019-03-10T06:57:38.292Z,5.40
2019-03-10T07:00:09.793Z,5.30
2019-03-10T07:02:38.231Z,5.40
2019-03-10T07:05:09.095Z,5.40
2019-03-10T07:07:37.558Z,5.40
2019-03-10T07:10:09.577Z,5.40
2019-03-10T07:12:38.012Z,5.50
2019-03-10T07:15:10.729Z,5.50
2019-03-10T07:17:39.218Z,5.60
2019-03-10T07:20:10.725Z,5.50
2019-03-10T07:22:39.155Z,5.60
2019-03-10T07:25:08.148Z,5.60
2019-03-10T07:27:54.165Z,5.70
2019-03-10T07:30:40.666Z,5.70
2019-03-10T07:33:16.788Z,5.80
2019-03-10T07:35:49.521Z,5.90
2019-03-10T07:38:22.377Z,5.80
2019-03-10T07:40:52.454Z,5.90
2019-03-10T07:43:22.585Z,5.90
2019-03-10T07:45:52.661Z,6.00
2019-03-10T07:48:22.732Z,5.90
2019-03-10T07:51:04.753Z,6.10
2019-03-10T07:53:34.844Z,6.30
2019-03-10T07:56:11.584Z,6.30
2019-03-10T07:58:57.112Z,6.30
2019-03-10T08:01:27.325Z,6.50
2019-03-10T08:04:03.670Z,6.40
2019-03-10T08:06:51.610Z,6.50
2019-03-10T08:09:21.819Z,6.50
2019-03-10T08:12:08.449Z,6.60
2019-03-10T08:14:53.805Z,6.70
2019-03-10T08:17:24.679Z,6.70
2019-03-10T08:19:55.052Z,6.90
2019-03-10T08:22:41.656Z,6.70
2019-03-10T08:25:23.714Z,6.60
2019-03-10T08:28:01.920Z,6.70
2019-03-10T08:30:48.294Z,6.90
2019-03-10T08:33:18.524Z,6.90
2019-03-10T08:36:00.247Z,6.90
2019-03-10T08:38:30.396Z,6.90
2019-03-10T08:41:03.398Z,6.90
2019-03-10T08:43:33.520Z,7.00
2019-03-10T08:46:06.455Z,6.90
2019-03-10T08:48:42.456Z,6.90
2019-03-10T08:51:12.704Z,6.80
2019-03-10T08:53:42.933Z,6.80
2019-03-10T08:56:13.203Z,6.80
2019-03-10T08:58:52.122Z,6.90
2019-03-10T09:01:24.635Z,6.90
2019-03-10T09:03:57.806Z,6.90
2019-03-10T09:06:27.906Z,6.90
2019-03-10T09:09:14.621Z,6.90
2019-03-10T09:12:02.807Z,7.00
2019-03-10T09:14:42.008Z,7.00
2019-03-10T09:17:12.171Z,6.90
2019-03-10T09:19:58.451Z,7.00
2019-03-10T09:22:28.827Z,7.10
2019-03-10T09:25:15.289Z,7.20
2019-03-10T09:27:57.697Z,7.30
2019-03-10T09:30:27.857Z,7.10
2019-03-10T09:33:03.824Z,7.10
2019-03-10T09:35:33.968Z,7.20
2019-03-10T09:38:04.153Z,7.30
2019-03-10T09:40:40.310Z,7.20
2019-03-10T09:43:19.421Z,7.40
2019-03-10T09:46:04.304Z,7.60
2019-03-10T09:48:50.896Z,7.70
2019-03-10T09:51:37.320Z,7.60
2019-03-10T09:54:25.677Z,7.30
2019-03-10T09:57:11.981Z,7.40
2019-03-10T09:59:51.140Z,7.50
2019-03-10T10:02:24.167Z,7.50
2019-03-10T10:05:10.503Z,7.60
2019-03-10T10:07:40.629Z,7.70
2019-03-10T10:10:27.402Z,7.80
2019-03-10T10:13:13.694Z,7.70
2019-03-10T10:15:56.144Z,7.60
2019-03-10T10:18:26.409Z,8.00
2019-03-10T10:20:59.682Z,8.20
2019-03-10T10:23:39.249Z,8.30
2019-03-10T10:26:13.982Z,8.00
2019-03-10T10:28:46.762Z,8.00
2019-03-10T10:31:16.922Z,7.80
2019-03-10T10:33:47.016Z,7.70
2019-03-10T10:36:17.289Z,7.90
2019-03-10T10:38:47.453Z,8.00
2019-03-10T10:41:33.512Z,8.00
2019-03-10T10:44:15.835Z,8.00
2019-03-10T10:46:51.952Z,8.10
2019-03-10T10:49:37.029Z,8.00
2019-03-10T10:52:10.568Z,9.30
2019-03-10T10:54:40.725Z,11.10
2019-03-10T10:57:16.850Z,11.30
2019-03-10T10:59:46.917Z,11.60
2019-03-10T11:02:33.158Z,12.20
2019-03-10T11:05:06.013Z,10.90
2019-03-10T11:07:39.053Z,9.30
2019-03-10T11:10:26.983Z,9.10
2019-03-10T11:13:06.169Z,8.90
2019-03-10T11:15:39.317Z,9.00
2019-03-10T11:18:13.638Z,9.10
2019-03-10T11:20:52.354Z,9.00
2019-03-10T11:23:22.507Z,8.90
2019-03-10T11:25:52.567Z,8.80
2019-03-10T11:28:33.825Z,8.70
2019-03-10T11:31:03.964Z,8.70
2019-03-10T11:33:40.192Z,8.70
2019-03-10T11:36:10.246Z,8.60
2019-03-10T11:38:52.300Z,8.40
2019-03-10T11:41:42.133Z,8.30
2019-03-10T11:44:28.275Z,8.40
2019-03-10T11:47:01.250Z,8.60
2019-03-10T11:49:46.140Z,8.60
2019-03-10T11:52:16.244Z,8.70
2019-03-10T11:54:58.365Z,8.90
2019-03-10T11:57:31.369Z,8.90
2019-03-10T12:00:07.404Z,9.00
2019-03-10T12:02:46.276Z,8.80
2019-03-10T12:05:16.361Z,8.70
2019-03-10T12:07:46.442Z,8.40
2019-03-10T12:10:14.864Z,8.30
2019-03-10T12:12:43.292Z,8.30
2019-03-10T12:15:13.866Z,8.20
2019-03-10T12:17:42.284Z,8.30
2019-03-10T12:20:13.052Z,8.20
2019-03-10T12:22:41.468Z,8.00
2019-03-10T12:25:12.251Z,7.90
2019-03-10T12:27:40.725Z,8.10
2019-03-10T12:30:14.216Z,8.10
2019-03-10T12:32:42.642Z,8.20
2019-03-10T12:35:11.129Z,8.20
2019-03-10T12:37:39.554Z,8.20
2019-03-10T12:40:10.198Z,8.30
2019-03-10T12:42:38.658Z,8.40
2019-03-10T12:45:11.253Z,8.60
2019-03-10T12:47:39.714Z,8.60
2019-03-10T12:50:10.818Z,8.60
2019-03-10T12:52:39.249Z,8.60
2019-03-10T12:55:09.723Z,8.60
2019-03-10T12:57:38.222Z,8.60
2019-03-10T13:00:09.739Z,8.50
2019-03-10T13:02:38.153Z,8.30
2019-03-10T13:05:08.739Z,8.10
2019-03-10T13:07:37.168Z,8.20
2019-03-10T13:10:05.601Z,8.30
2019-03-10T13:12:34.098Z,8.30
2019-03-10T13:15:02.866Z,8.30
2019-03-10T13:17:31.304Z,8.30
2019-03-10T13:19:59.752Z,8.30
2019-03-10T13:22:28.191Z,8.30
2019-03-10T13:24:56.614Z,8.30
2019-03-10T13:27:25.033Z,8.30
2019-03-10T13:29:53.474Z,8.40
2019-03-10T13:32:21.916Z,8.40
2019-03-10T13:34:50.515Z,8.40
2019-03-10T13:37:18.939Z,8.40
2019-03-10T13:39:47.402Z,8.30
2019-03-10T13:42:15.826Z,7.90
2019-03-10T13:44:44.257Z,7.80
2019-03-10T13:47:12.672Z,8.00
2019-03-10T13:49:41.091Z,7.40
2019-03-10T13:52:09.514Z,7.00
2019-03-10T13:54:37.961Z,6.90
2019-03-10T13:57:07.242Z,7.10
2019-03-10T13:59:35.688Z,7.20
2019-03-10T14:02:04.152Z,7.20
2019-03-10T14:04:32.635Z,7.40
2019-03-10T14:07:01.156Z,7.20
2019-03-10T14:09:29.578Z,7.20
2019-03-10T14:11:58.013Z,7.20
2019-03-10T14:14:26.437Z,7.30
2019-03-10T14:16:54.872Z,7.30
2019-03-10T14:19:23.313Z,7.30
2019-03-10T14:21:51.742Z,7.40
2019-03-10T14:24:20.506Z,7.40
2019-03-10T14:26:49.049Z,7.40
2019-03-10T14:29:17.464Z,7.40
2019-03-10T14:31:45.969Z,7.40
2019-03-10T14:34:14.407Z,7.20
2019-03-10T14:36:42.890Z,7.30
2019-03-10T14:39:11.664Z,7.10
2019-03-10T14:41:40.179Z,7.10
2019-03-10T14:44:08.600Z,7.10
2019-03-10T14:46:37.117Z,6.70
2019-03-10T14:49:05.631Z,6.60
2019-03-10T14:51:34.825Z,6.60
2019-03-10T14:54:04.285Z,6.50
2019-03-10T14:56:32.786Z,6.60
2019-03-10T14:59:01.291Z,6.60
2019-03-10T15:01:29.896Z,6.40
2019-03-10T15:03:58.338Z,6.00
2019-03-10T15:06:26.836Z,6.10
2019-03-10T15:08:55.342Z,6.20
2019-03-10T15:11:23.780Z,6.50
2019-03-10T15:13:52.262Z,6.10
2019-03-10T15:16:20.793Z,5.70
2019-03-10T15:18:49.401Z,5.40
2019-03-10T15:21:17.962Z,5.50
2019-03-10T15:23:54.483Z,5.60
2019-03-10T15:26:24.909Z,5.70
2019-03-10T15:29:03.562Z,5.80
2019-03-10T15:31:31.995Z,5.70
2019-03-10T15:34:00.592Z,5.70
2019-03-10T15:36:29.129Z,5.70
2019-03-10T15:38:57.569Z,5.60
2019-03-10T15:41:25.989Z,5.60
2019-03-10T15:43:54.509Z,5.40
2019-03-10T15:46:23.016Z,5.40
2019-03-10T15:48:51.445Z,5.20
2019-03-10T15:51:19.874Z,5.30
2019-03-10T15:53:48.317Z,5.50
2019-03-10T15:56:16.767Z,5.70
2019-03-10T15:58:45.264Z,5.80
2019-03-10T16:01:13.686Z,5.70
2019-03-10T16:03:43.677Z,5.50
2019-03-10T16:06:12.088Z,5.50
2019-03-10T16:08:40.547Z,5.60
2019-03-10T16:11:09.138Z,5.60
2019-03-10T16:13:37.604Z,5.60
2019-03-10T16:16:06.025Z,5.60
2019-03-10T16:18:34.505Z,5.60
2019-03-10T16:21:02.970Z,5.60
2019-03-10T16:23:31.393Z,5.70
2019-03-10T16:25:59.829Z,5.80
2019-03-10T16:28:28.259Z,5.80
2019-03-10T16:30:56.692Z,5.70
2019-03-10T16:33:25.552Z,5.70
2019-03-10T16:35:54.341Z,5.80
2019-03-10T16:38:22.765Z,5.80
2019-03-10T16:40:51.266Z,5.60
2019-03-10T16:43:19.884Z,5.50
2019-03-10T16:45:48.314Z,5.40
2019-03-10T16:48:18.232Z,5.40
2019-03-10T16:50:46.661Z,5.50
2019-03-10T16:53:15.158Z,5.40
2019-03-10T16:55:43.593Z,5.30
2019-03-10T16:58:12.025Z,5.30
2019-03-10T17:00:40.463Z,5.20
2019-03-10T17:03:08.880Z,5.20
2019-03-10T17:05:37.330Z,5.20
2019-03-10T17:08:05.841Z,5.10
2019-03-10T17:10:34.281Z,5.10
2019-03-10T17:13:02.721Z,5.10
2019-03-10T17:15:31.486Z,5.00
2019-03-10T17:17:59.901Z,5.10
2019-03-10T17:20:28.336Z,5.00
2019-03-10T17:22:56.759Z,5.00
2019-03-10T17:25:25.301Z,5.10
2019-03-10T17:27:53.729Z,5.00
2019-03-10T17:30:27.002Z,5.00
2019-03-10T17:32:55.443Z,5.00
2019-03-10T17:35:23.929Z,5.00
2019-03-10T17:37:52.388Z,5.00
2019-03-10T17:40:25.404Z,5.00
2019-03-10T17:42:54.122Z,5.10
2019-03-10T17:45:23.681Z,5.00
2019-03-10T17:47:52.115Z,5.00
2019-03-10T17:50:20.818Z,5.20
2019-03-10T17:52:50.084Z,5.30
2019-03-10T17:55:19.956Z,5.30
2019-03-10T17:57:48.389Z,5.30
2019-03-10T18:00:33.380Z,5.40
2019-03-10T18:03:01.824Z,5.30
2019-03-10T18:05:30.279Z,5.30
2019-03-10T18:07:58.905Z,5.30
2019-03-10T18:10:27.318Z,5.30
2019-03-10T18:12:55.754Z,5.30
2019-03-10T18:15:24.487Z,5.30
2019-03-10T18:17:53.043Z,5.30
2019-03-10T18:20:22.793Z,5.40
2019-03-10T18:22:51.242Z,5.40
2019-03-10T18:25:19.740Z,5.40
2019-03-10T18:27:48.233Z,5.30
2019-03-10T18:30:24.336Z,5.40
2019-03-10T18:32:52.910Z,5.30
2019-03-10T18:35:21.426Z,5.30
2019-03-10T18:37:49.932Z,5.40
2019-03-10T18:40:20.008Z,5.30
2019-03-10T18:42:48.449Z,5.30
2019-03-10T18:45:18.521Z,5.90
2019-03-10T18:47:47.217Z,6.00
2019-03-10T18:50:20.813Z,6.00
2019-03-10T18:52:49.253Z,6.20
2019-03-10T18:55:18.775Z,6.30
2019-03-10T18:57:49.578Z,6.30
2019-03-10T19:00:23.341Z,6.20
2019-03-10T19:02:51.837Z,6.40
2019-03-10T19:05:21.465Z,6.40
2019-03-10T19:07:49.926Z,6.60
2019-03-10T19:10:18.355Z,6.20
2019-03-10T19:12:46.837Z,5.80
2019-03-10T19:15:20.283Z,5.50
2019-03-10T19:17:48.729Z,5.50
2019-03-10T19:20:17.366Z,5.40
2019-03-10T19:22:45.874Z,5.30
2019-03-10T19:25:17.661Z,5.40
2019-03-10T19:27:46.092Z,5.30
2019-03-10T19:30:20.177Z,5.30
2019-03-10T19:32:48.741Z,5.30
2019-03-10T19:35:17.456Z,5.30
2019-03-10T19:37:45.892Z,5.30
2019-03-10T19:40:23.822Z,5.20
2019-03-10T19:42:52.337Z,5.30
2019-03-10T19:45:22.993Z,5.30
2019-03-10T19:47:51.455Z,5.30
2019-03-10T19:50:27.926Z,5.30
2019-03-10T19:52:57.066Z,5.20
2019-03-10T19:55:26.069Z,5.20
2019-03-10T19:57:54.609Z,5.30
2019-03-10T20:00:23.747Z,5.40
2019-03-10T20:02:52.178Z,5.30
2019-03-10T20:05:20.683Z,5.30
2019-03-10T20:07:49.157Z,5.30
2019-03-10T20:10:23.280Z,5.40
2019-03-10T20:12:53.698Z,6.00
2019-03-10T20:15:23.528Z,6.20
2019-03-10T20:17:51.995Z,6.40
2019-03-10T20:20:25.681Z,6.50
2019-03-10T20:22:54.119Z,6.40
2019-03-10T20:25:22.579Z,6.50
2019-03-10T20:27:51.098Z,6.20
2019-03-10T20:30:25.300Z,6.30
2019-03-10T20:32:53.858Z,6.40
2019-03-10T20:35:22.322Z,6.50
2019-03-10T20:37:51.241Z,6.60
2019-03-10T20:40:22.055Z,6.50
2019-03-10T20:42:50.478Z,6.50
2019-03-10T20:45:18.919Z,6.40
2019-03-10T20:47:47.349Z,6.40
2019-03-10T20:50:18.082Z,6.40
2019-03-10T20:52:46.582Z,6.30
2019-03-10T20:55:15.456Z,6.10
2019-03-10T20:57:44.648Z,6.10
2019-03-10T21:00:29.343Z,5.70
2019-03-10T21:02:57.792Z,5.60
2019-03-10T21:05:26.285Z,5.70
2019-03-10T21:07:54.704Z,5.50
2019-03-10T21:10:27.965Z,5.30
2019-03-10T21:12:56.541Z,5.40
2019-03-10T21:15:26.500Z,5.50
2019-03-10T21:17:55.232Z,5.60
2019-03-10T21:20:24.889Z,5.70
2019-03-10T21:22:53.685Z,5.70
2019-03-10T21:25:23.852Z,5.70
2019-03-10T21:27:52.402Z,5.60
2019-03-10T21:30:32.011Z,5.40
2019-03-10T21:33:00.448Z,5.50
2019-03-10T21:35:28.881Z,5.40
2019-03-10T21:37:57.314Z,5.20
2019-03-10T21:40:31.005Z,5.10
2019-03-10T21:42:59.440Z,4.90
2019-03-10T21:45:28.039Z,4.90
2019-03-10T21:47:56.482Z,4.90
2019-03-10T21:50:25.078Z,4.80
2019-03-10T21:52:54.930Z,4.70
2019-03-10T21:55:23.360Z,4.70
2019-03-10T21:57:51.782Z,4.70
2019-03-10T22:00:21.069Z,4.80
2019-03-10T22:02:49.779Z,4.80
2019-03-10T22:05:19.061Z,4.80
2019-03-10T22:07:47.506Z,4.90
2019-03-10T22:10:35.289Z,4.80
2019-03-10T22:13:03.746Z,4.60
2019-03-10T22:15:41.030Z,4.60
2019-03-10T22:18:02.391Z,4.70
2019-03-10T22:20:30.811Z,4.70
2019-03-10T22:22:59.250Z,4.60
2019-03-10T22:25:27.674Z,4.60
2019-03-10T22:27:56.104Z,4.70
2019-03-10T22:30:25.002Z,4.60
2019-03-10T22:32:53.451Z,4.50
2019-03-10T22:35:21.886Z,4.30
2019-03-10T22:37:50.382Z,4.20
2019-03-10T22:40:19.060Z,4.20
2019-03-10T22:42:47.472Z,4.20
2019-03-10T22:45:19.372Z,4.20
2019-03-10T22:47:47.915Z,4.10
2019-03-10T22:50:17.311Z,4.00
2019-03-10T22:52:46.579Z,4.00
2019-03-10T22:55:15.756Z,4.00
2019-03-10T22:57:45.144Z,4.10
2019-03-10T23:00:19.340Z,4.10
2019-03-10T23:02:47.776Z,4.00
2019-03-10T23:05:16.477Z,4.00
2019-03-10T23:07:44.912Z,4.00
2019-03-10T23:10:15.256Z,4.00
2019-03-10T23:12:44.257Z,4.00
2019-03-10T23:15:14.141Z,4.00
2019-03-10T23:17:42.595Z,4.00
2019-03-10T23:20:14.942Z,3.90
2019-03-10T23:22:43.631Z,4.00
2019-03-10T23:25:12.593Z,4.10
2019-03-10T23:27:41.022Z,4.00
2019-03-10T23:30:17.380Z,4.10
2019-03-10T23:32:45.815Z,4.10
2019-03-10T23:35:15.015Z,4.00
2019-03-10T23:37:43.433Z,4.00
2019-03-10T23:40:13.641Z,4.00
2019-03-10T23:42:42.059Z,4.10
2019-03-10T23:45:13.167Z,4.00
2019-03-10T23:47:41.599Z,3.90
2019-03-10T23:50:15.155Z,3.80
2019-03-10T23:52:43.587Z,3.80
2019-03-10T23:55:15.452Z,3.90
2019-03-10T23:57:44.341Z,3.90
